Bavaria

Go HERE for most recent data if this page is not up to date.

Jump to table bottom
Date Time Temp F RH % AVG Wind Max Wind Wind Dir 24 Snow Depth
*12/01/21 21 37.0 69 25 33 SW - 234 1.9 23.2
*12/01/21 20 36.9 70 30 39 SW - 244 1.8 23.3
*12/01/21 19 37.3 71 30 38 SW - 215 2.0 23.3
*12/01/21 18 37.5 70 25 32 W - 252 1.8 23.3
*12/01/21 17 37.8 69 20 31 W - 266 2.1 23.3
*12/01/21 16 38.1 68 25 35 SW - 229 2.1 23.3
*12/01/21 15 37.9 70 25 34 SW - 244 2.1 23.3
*12/01/21 14 37.9 72 23 32 SW - 238 2.2 23.6
*12/01/21 13 38.5 70 19 27 SW - 232 2.5 23.9
*12/01/21 12 37.7 73 21 29 W - 256 2.8 24.2
*12/01/21 11 37.0 74 14 24 SW - 245 2.4 24.5
*12/01/21 10 35.9 74 12 22 SW - 239 2.7 24.6
*12/01/21 09 35.7 74 9 22 W - 250 2.9 24.7
*12/01/21 08 33.4 81 9 17 W - 266 3.1 24.6
*12/01/21 07 32.9 84 12 21 SW - 214 3.2 24.8
*12/01/21 06 33.6 83 11 18 SW - 223 3.0 143.3
*12/01/21 05 33.0 90 9 15 SW - 234 3.1 143.3
*12/01/21 04 34.1 83 11 18 W - 265 3.1 143.3
*12/01/21 03 32.1 91 10 17 SW - 245 3.1 143.3
*12/01/21 02 32.3 89 15 21 W - 270 3.3 143.3
*12/01/21 01 30.9 93 10 19 W - 254 3.0 143.3
*12/01/21 00 30.9 92 9 17 W - 288 2.9 143.3
*11/30/21 23 30.7 90 12 21 W - 258 3.2 143.3
*11/30/21 22 29.9 88 10 17 SW - 227 3.1 143.3
*11/30/21 21 29.6 88 9 17 SW - 232 3.2 25.0
*11/30/21 20 29.6 83 13 18 SW - 239 3.4 25.0
*11/30/21 19 29.2 78 12 21 SW - 240 3.1 25.0
*11/30/21 18 29.1 72 10 18 E - 100 3.4 25.0
*11/30/21 17 30.1 63 13 23 SW - 241 3.0 25.1
*11/30/21 16 29.8 61 15 26 W - 248 3.0 25.3
*11/30/21 15 29.9 60 20 29 W - 259 3.1 24.9
*11/30/21 14 28.7 55 19 27 SW - 244 3.4 24.9
*11/30/21 13 27.9 50 19 30 W - 278 3.4 24.9
*11/30/21 12 27.4 41 22 36 W - 260 3.2 24.5
*11/30/21 11 26.9 35 22 37 SW - 215 3.4 24.2
*11/30/21 10 26.8 32 21 33 SW - 247 2.9 24.2
*11/30/21 09 25.3 42 23 33 W - 268 2.8 24.3
*11/30/21 08 24.7 42 20 30 W - 269 2.8 24.0
*11/30/21 07 25.6 37 18 28 SW - 243 2.9 23.9
*11/30/21 06 26.6 32 16 24 SW - 237 2.7 24.0
*11/30/21 05 26.4 35 13 21 W - 281 2.9 24.5
*11/30/21 04 26.4 38 9 14 SW - 225 3.0 24.4
*11/30/21 03 23.8 56 9 15 W - 254 3.2 24.4
*11/30/21 02 20.2 89 11 18 W - 248 3.1 24.3
*11/30/21 01 20.3 90 13 17 W - 275 3.2 24.2
*11/30/21 00 20.4 89 11 15 NW - 300 3.1 24.4
.